sensor_id;sensor_type;location;lat;lon;timestamp;temperature;humidity
32502;DHT22;18952;52.516;13.460;2023-06-26T00:00:14;21.80;99.90
32502;DHT22;18952;52.516;13.460;2023-06-26T00:02:41;21.80;99.90
32502;DHT22;18952;52.516;13.460;2023-06-26T00:05:08;21.70;99.90
32502;DHT22;18952;52.516;13.460;2023-06-26T00:07:35;21.70;99.90
32502;DHT22;18952;52.516;13.460;2023-06-26T00:10:06;21.60;99.90
32502;DHT22;18952;52.516;13.460;2023-06-26T00:12:33;21.60;99.90
32502;DHT22;18952;52.516;13.460;2023-06-26T00:15:00;21.60;99.90
32502;DHT22;18952;52.516;13.460;2023-06-26T00:17:27;21.50;99.90
32502;DHT22;18952;52.516;13.460;2023-06-26T00:19:54;21.50;99.90
32502;DHT22;18952;52.516;13.460;2023-06-26T00:22:21;21.50;99.90
32502;DHT22;18952;52.516;13.460;2023-06-26T00:24:48;21.50;99.90
32502;DHT22;18952;52.516;13.460;2023-06-26T00:27:15;21.50;99.90
32502;DHT22;18952;52.516;13.460;2023-06-26T00:29:41;21.40;99.90
32502;DHT22;18952;52.516;13.460;2023-06-26T00:32:08;21.40;99.90
32502;DHT22;18952;52.516;13.460;2023-06-26T00:34:35;21.40;99.90
32502;DHT22;18952;52.516;13.460;2023-06-26T00:37:02;21.40;99.90
32502;DHT22;18952;52.516;13.460;2023-06-26T00:39:28;21.40;99.90
32502;DHT22;18952;52.516;13.460;2023-06-26T00:41:55;21.40;99.90
32502;DHT22;18952;52.516;13.460;2023-06-26T00:44:22;21.40;99.90
32502;DHT22;18952;52.516;13.460;2023-06-26T00:46:49;21.40;99.90
32502;DHT22;18952;52.516;13.460;2023-06-26T00:49:17;21.40;99.90
32502;DHT22;18952;52.516;13.460;2023-06-26T00:51:44;21.40;99.90
32502;DHT22;18952;52.516;13.460;2023-06-26T00:54:11;21.30;99.90
32502;DHT22;18952;52.516;13.460;2023-06-26T00:56:38;21.40;99.90
32502;DHT22;18952;52.516;13.460;2023-06-26T00:59:05;21.30;99.90
32502;DHT22;18952;52.516;13.460;2023-06-26T01:01:32;21.30;99.90
32502;DHT22;18952;52.516;13.460;2023-06-26T01:03:58;21.30;99.90
32502;DHT22;18952;52.516;13.460;2023-06-26T01:06:27;21.30;99.90
32502;DHT22;18952;52.516;13.460;2023-06-26T01:08:55;21.30;99.90
32502;DHT22;18952;52.516;13.460;2023-06-26T01:11:23;21.30;99.90
32502;DHT22;18952;52.516;13.460;2023-06-26T01:13:51;21.30;99.90
32502;DHT22;18952;52.516;13.460;2023-06-26T01:16:18;21.30;99.90
32502;DHT22;18952;52.516;13.460;2023-06-26T01:18:45;21.30;99.90
32502;DHT22;18952;52.516;13.460;2023-06-26T01:21:13;21.30;99.90
32502;DHT22;18952;52.516;13.460;2023-06-26T01:26:20;21.30;99.90
32502;DHT22;18952;52.516;13.460;2023-06-26T01:28:50;21.30;99.90
32502;DHT22;18952;52.516;13.460;2023-06-26T01:31:19;21.30;99.90
32502;DHT22;18952;52.516;13.460;2023-06-26T01:33:46;21.30;99.90
32502;DHT22;18952;52.516;13.460;2023-06-26T01:36:13;21.30;99.90
32502;DHT22;18952;52.516;13.460;2023-06-26T01:38:40;21.20;99.90
32502;DHT22;18952;52.516;13.460;2023-06-26T01:41:07;21.30;99.90
32502;DHT22;18952;52.516;13.460;2023-06-26T01:46:37;21.20;99.90
32502;DHT22;18952;52.516;13.460;2023-06-26T01:51:53;21.20;99.90
32502;DHT22;18952;52.516;13.460;2023-06-26T01:54:23;21.20;99.90
32502;DHT22;18952;52.516;13.460;2023-06-26T01:56:54;21.20;99.90
32502;DHT22;18952;52.516;13.460;2023-06-26T01:59:22;21.10;99.90
32502;DHT22;18952;52.516;13.460;2023-06-26T02:01:49;21.00;99.90
32502;DHT22;18952;52.516;13.460;2023-06-26T02:04:16;21.00;99.90
32502;DHT22;18952;52.516;13.460;2023-06-26T02:06:42;21.00;99.90
32502;DHT22;18952;52.516;13.460;2023-06-26T02:09:09;21.00;99.90
32502;DHT22;18952;52.516;13.460;2023-06-26T02:11:36;21.00;99.90
32502;DHT22;18952;52.516;13.460;2023-06-26T02:14:03;21.00;99.90
32502;DHT22;18952;52.516;13.460;2023-06-26T02:16:30;21.00;99.90
32502;DHT22;18952;52.516;13.460;2023-06-26T02:18:56;21.00;99.90
32502;DHT22;18952;52.516;13.460;2023-06-26T02:21:23;21.00;99.90
32502;DHT22;18952;52.516;13.460;2023-06-26T02:23:50;21.00;99.90
32502;DHT22;18952;52.516;13.460;2023-06-26T02:26:17;21.00;99.90
32502;DHT22;18952;52.516;13.460;2023-06-26T02:28:44;21.00;99.90
32502;DHT22;18952;52.516;13.460;2023-06-26T02:31:10;21.00;99.90
32502;DHT22;18952;52.516;13.460;2023-06-26T02:33:37;21.00;99.90
32502;DHT22;18952;52.516;13.460;2023-06-26T02:36:04;20.90;99.90
32502;DHT22;18952;52.516;13.460;2023-06-26T02:38:31;20.90;99.90
32502;DHT22;18952;52.516;13.460;2023-06-26T02:40:58;20.90;99.90
32502;DHT22;18952;52.516;13.460;2023-06-26T02:43:25;20.90;99.90
32502;DHT22;18952;52.516;13.460;2023-06-26T02:45:51;20.90;99.90
32502;DHT22;18952;52.516;13.460;2023-06-26T02:48:18;20.80;99.90
32502;DHT22;18952;52.516;13.460;2023-06-26T02:50:45;20.80;99.90
32502;DHT22;18952;52.516;13.460;2023-06-26T02:53:12;20.80;99.90
32502;DHT22;18952;52.516;13.460;2023-06-26T02:55:39;20.80;99.90
32502;DHT22;18952;52.516;13.460;2023-06-26T02:58:06;20.70;99.90
32502;DHT22;18952;52.516;13.460;2023-06-26T03:00:32;20.70;99.90
32502;DHT22;18952;52.516;13.460;2023-06-26T03:02:59;20.70;99.90
32502;DHT22;18952;52.516;13.460;2023-06-26T03:05:26;20.70;99.90
32502;DHT22;18952;52.516;13.460;2023-06-26T03:07:53;20.70;99.90
32502;DHT22;18952;52.516;13.460;2023-06-26T03:10:20;20.60;99.90
32502;DHT22;18952;52.516;13.460;2023-06-26T03:12:46;20.60;99.90
32502;DHT22;18952;52.516;13.460;2023-06-26T03:15:13;20.60;99.90
32502;DHT22;18952;52.516;13.460;2023-06-26T03:17:40;20.60;99.90
32502;DHT22;18952;52.516;13.460;2023-06-26T03:20:07;20.50;99.90
32502;DHT22;18952;52.516;13.460;2023-06-26T03:22:34;20.50;99.90
32502;DHT22;18952;52.516;13.460;2023-06-26T03:25:02;20.50;99.90
32502;DHT22;18952;52.516;13.460;2023-06-26T03:27:29;20.50;99.90
32502;DHT22;18952;52.516;13.460;2023-06-26T03:29:56;20.40;99.90
32502;DHT22;18952;52.516;13.460;2023-06-26T03:32:23;20.40;99.90
32502;DHT22;18952;52.516;13.460;2023-06-26T03:34:49;20.50;99.90
32502;DHT22;18952;52.516;13.460;2023-06-26T03:37:16;20.40;99.90
32502;DHT22;18952;52.516;13.460;2023-06-26T03:39:43;20.40;99.90
32502;DHT22;18952;52.516;13.460;2023-06-26T03:42:10;20.40;99.90
32502;DHT22;18952;52.516;13.460;2023-06-26T03:44:36;20.30;99.90
32502;DHT22;18952;52.516;13.460;2023-06-26T03:47:03;20.30;99.90
32502;DHT22;18952;52.516;13.460;2023-06-26T03:49:30;20.40;99.90
32502;DHT22;18952;52.516;13.460;2023-06-26T03:51:57;20.40;99.90
32502;DHT22;18952;52.516;13.460;2023-06-26T03:54:23;20.40;99.90
32502;DHT22;18952;52.516;13.460;2023-06-26T03:56:50;20.50;99.90
32502;DHT22;18952;52.516;13.460;2023-06-26T03:59:17;20.50;99.90
32502;DHT22;18952;52.516;13.460;2023-06-26T04:01:44;20.50;99.90
32502;DHT22;18952;52.516;13.460;2023-06-26T04:04:11;20.60;99.90
32502;DHT22;18952;52.516;13.460;2023-06-26T04:06:37;20.60;99.90
32502;DHT22;18952;52.516;13.460;2023-06-26T04:09:04;20.70;99.90
32502;DHT22;18952;52.516;13.460;2023-06-26T04:11:31;20.80;99.90
32502;DHT22;18952;52.516;13.460;2023-06-26T04:13:58;20.80;99.90
32502;DHT22;18952;52.516;13.460;2023-06-26T04:16:25;20.90;99.90
32502;DHT22;18952;52.516;13.460;2023-06-26T04:18:52;20.90;99.90
32502;DHT22;18952;52.516;13.460;2023-06-26T04:21:20;21.00;99.90
32502;DHT22;18952;52.516;13.460;2023-06-26T04:23:47;21.00;99.90
32502;DHT22;18952;52.516;13.460;2023-06-26T04:26:14;21.00;99.90
32502;DHT22;18952;52.516;13.460;2023-06-26T04:28:41;21.10;99.90
32502;DHT22;18952;52.516;13.460;2023-06-26T04:31:09;21.20;99.90
32502;DHT22;18952;52.516;13.460;2023-06-26T04:33:36;21.20;99.90
32502;DHT22;18952;52.516;13.460;2023-06-26T04:36:07;21.30;99.90
32502;DHT22;18952;52.516;13.460;2023-06-26T04:38:34;21.30;99.90
32502;DHT22;18952;52.516;13.460;2023-06-26T04:41:01;21.40;99.90
32502;DHT22;18952;52.516;13.460;2023-06-26T04:43:28;21.40;99.90
32502;DHT22;18952;52.516;13.460;2023-06-26T04:45:55;21.40;99.90
32502;DHT22;18952;52.516;13.460;2023-06-26T04:48:23;21.50;99.90
32502;DHT22;18952;52.516;13.460;2023-06-26T04:50:49;21.50;99.90
32502;DHT22;18952;52.516;13.460;2023-06-26T04:53:16;21.50;99.90
32502;DHT22;18952;52.516;13.460;2023-06-26T04:55:43;21.50;99.90
32502;DHT22;18952;52.516;13.460;2023-06-26T04:58:10;21.60;99.90
32502;DHT22;18952;52.516;13.460;2023-06-26T05:00:36;21.60;99.90
32502;DHT22;18952;52.516;13.460;2023-06-26T05:03:04;21.60;99.90
32502;DHT22;18952;52.516;13.460;2023-06-26T05:05:31;21.50;99.90
32502;DHT22;18952;52.516;13.460;2023-06-26T05:07:57;21.60;99.90
32502;DHT22;18952;52.516;13.460;2023-06-26T05:10:24;21.70;99.90
32502;DHT22;18952;52.516;13.460;2023-06-26T05:12:51;21.70;99.90
32502;DHT22;18952;52.516;13.460;2023-06-26T05:15:18;21.80;99.90
32502;DHT22;18952;52.516;13.460;2023-06-26T05:17:45;21.90;99.90
32502;DHT22;18952;52.516;13.460;2023-06-26T05:20:12;22.00;99.90
32502;DHT22;18952;52.516;13.460;2023-06-26T05:22:39;22.10;99.90
32502;DHT22;18952;52.516;13.460;2023-06-26T05:25:08;22.20;99.90
32502;DHT22;18952;52.516;13.460;2023-06-26T05:27:35;22.20;99.90
32502;DHT22;18952;52.516;13.460;2023-06-26T05:30:03;22.40;99.90
32502;DHT22;18952;52.516;13.460;2023-06-26T05:32:30;22.40;99.90
32502;DHT22;18952;52.516;13.460;2023-06-26T05:35:02;22.50;99.90
32502;DHT22;18952;52.516;13.460;2023-06-26T05:37:29;22.50;99.90
32502;DHT22;18952;52.516;13.460;2023-06-26T05:39:57;22.60;99.90
32502;DHT22;18952;52.516;13.460;2023-06-26T05:42:25;22.60;99.90
32502;DHT22;18952;52.516;13.460;2023-06-26T05:44:52;22.60;99.90
32502;DHT22;18952;52.516;13.460;2023-06-26T05:47:19;22.60;99.90
32502;DHT22;18952;52.516;13.460;2023-06-26T05:49:45;22.60;99.90
32502;DHT22;18952;52.516;13.460;2023-06-26T05:52:13;22.50;99.90
32502;DHT22;18952;52.516;13.460;2023-06-26T05:54:40;22.40;99.90
32502;DHT22;18952;52.516;13.460;2023-06-26T05:57:07;22.40;99.90
32502;DHT22;18952;52.516;13.460;2023-06-26T05:59:36;22.30;99.90
32502;DHT22;18952;52.516;13.460;2023-06-26T06:02:03;22.20;99.90
32502;DHT22;18952;52.516;13.460;2023-06-26T06:04:30;22.20;99.90
32502;DHT22;18952;52.516;13.460;2023-06-26T06:06:57;22.20;99.90
32502;DHT22;18952;52.516;13.460;2023-06-26T06:09:24;22.10;99.90
32502;DHT22;18952;52.516;13.460;2023-06-26T06:11:51;22.10;99.90
32502;DHT22;18952;52.516;13.460;2023-06-26T06:14:17;22.10;99.90
32502;DHT22;18952;52.516;13.460;2023-06-26T06:16:44;22.10;99.90
32502;DHT22;18952;52.516;13.460;2023-06-26T06:19:11;22.10;99.90
32502;DHT22;18952;52.516;13.460;2023-06-26T06:21:38;22.10;99.90
32502;DHT22;18952;52.516;13.460;2023-06-26T06:24:05;22.10;99.90
32502;DHT22;18952;52.516;13.460;2023-06-26T06:26:32;22.10;99.90
32502;DHT22;18952;52.516;13.460;2023-06-26T06:28:59;22.10;99.90
32502;DHT22;18952;52.516;13.460;2023-06-26T06:31:26;22.10;99.90
32502;DHT22;18952;52.516;13.460;2023-06-26T06:33:53;22.10;99.90
32502;DHT22;18952;52.516;13.460;2023-06-26T06:36:19;22.20;99.90
32502;DHT22;18952;52.516;13.460;2023-06-26T06:38:46;22.20;99.90
32502;DHT22;18952;52.516;13.460;2023-06-26T06:41:13;22.20;99.90
32502;DHT22;18952;52.516;13.460;2023-06-26T06:43:40;22.30;99.90
32502;DHT22;18952;52.516;13.460;2023-06-26T06:46:06;22.30;99.90
32502;DHT22;18952;52.516;13.460;2023-06-26T06:48:34;22.30;99.90
32502;DHT22;18952;52.516;13.460;2023-06-26T06:51:01;22.40;99.90
32502;DHT22;18952;52.516;13.460;2023-06-26T06:53:27;22.40;99.90
32502;DHT22;18952;52.516;13.460;2023-06-26T06:55:54;22.40;99.90
32502;DHT22;18952;52.516;13.460;2023-06-26T06:58:21;22.40;99.90
32502;DHT22;18952;52.516;13.460;2023-06-26T07:00:48;22.50;99.90
32502;DHT22;18952;52.516;13.460;2023-06-26T07:03:15;22.60;99.90
32502;DHT22;18952;52.516;13.460;2023-06-26T07:05:42;22.60;99.90
32502;DHT22;18952;52.516;13.460;2023-06-26T07:08:09;22.70;99.90
32502;DHT22;18952;52.516;13.460;2023-06-26T07:10:36;22.70;99.90
32502;DHT22;18952;52.516;13.460;2023-06-26T07:13:03;22.80;99.90
32502;DHT22;18952;52.516;13.460;2023-06-26T07:15:31;22.80;99.90
32502;DHT22;18952;52.516;13.460;2023-06-26T07:17:58;22.90;99.90
32502;DHT22;18952;52.516;13.460;2023-06-26T07:20:25;22.90;99.90
32502;DHT22;18952;52.516;13.460;2023-06-26T07:22:52;22.90;99.90
32502;DHT22;18952;52.516;13.460;2023-06-26T07:25:19;23.00;99.90
32502;DHT22;18952;52.516;13.460;2023-06-26T07:27:46;23.00;99.90
32502;DHT22;18952;52.516;13.460;2023-06-26T07:30:13;23.10;99.90
32502;DHT22;18952;52.516;13.460;2023-06-26T07:32:40;23.10;99.90
32502;DHT22;18952;52.516;13.460;2023-06-26T07:35:07;23.10;99.90
32502;DHT22;18952;52.516;13.460;2023-06-26T07:37:33;23.10;99.90
32502;DHT22;18952;52.516;13.460;2023-06-26T07:40:00;23.20;99.90
32502;DHT22;18952;52.516;13.460;2023-06-26T07:42:27;23.20;99.90
32502;DHT22;18952;52.516;13.460;2023-06-26T07:44:54;23.20;99.90
32502;DHT22;18952;52.516;13.460;2023-06-26T07:47:20;23.30;99.90
32502;DHT22;18952;52.516;13.460;2023-06-26T07:49:47;23.30;99.90
32502;DHT22;18952;52.516;13.460;2023-06-26T07:52:15;23.40;99.90
32502;DHT22;18952;52.516;13.460;2023-06-26T07:54:42;23.40;99.90
32502;DHT22;18952;52.516;13.460;2023-06-26T07:57:08;23.40;99.90
32502;DHT22;18952;52.516;13.460;2023-06-26T07:59:35;23.50;99.90
32502;DHT22;18952;52.516;13.460;2023-06-26T08:02:03;23.60;99.90
32502;DHT22;18952;52.516;13.460;2023-06-26T08:04:30;23.60;99.90
32502;DHT22;18952;52.516;13.460;2023-06-26T08:06:58;23.70;99.90
32502;DHT22;18952;52.516;13.460;2023-06-26T08:09:27;23.80;99.90
32502;DHT22;18952;52.516;13.460;2023-06-26T08:11:55;23.90;99.90
32502;DHT22;18952;52.516;13.460;2023-06-26T08:14:22;23.90;99.90
32502;DHT22;18952;52.516;13.460;2023-06-26T08:16:49;23.90;99.90
32502;DHT22;18952;52.516;13.460;2023-06-26T08:19:17;23.90;99.90
32502;DHT22;18952;52.516;13.460;2023-06-26T08:21:45;23.90;99.90
32502;DHT22;18952;52.516;13.460;2023-06-26T08:24:13;24.00;99.90
32502;DHT22;18952;52.516;13.460;2023-06-26T08:26:40;24.10;99.90
32502;DHT22;18952;52.516;13.460;2023-06-26T08:29:07;24.20;99.90
32502;DHT22;18952;52.516;13.460;2023-06-26T08:31:38;24.20;99.90
32502;DHT22;18952;52.516;13.460;2023-06-26T08:34:06;24.30;99.90
32502;DHT22;18952;52.516;13.460;2023-06-26T08:36:33;24.30;99.90
32502;DHT22;18952;52.516;13.460;2023-06-26T08:38:59;24.30;99.90
32502;DHT22;18952;52.516;13.460;2023-06-26T08:41:26;24.40;99.90
32502;DHT22;18952;52.516;13.460;2023-06-26T08:43:53;24.40;99.90
32502;DHT22;18952;52.516;13.460;2023-06-26T08:46:20;24.50;99.90
32502;DHT22;18952;52.516;13.460;2023-06-26T08:49:00;24.60;99.90
32502;DHT22;18952;52.516;13.460;2023-06-26T08:51:28;24.70;99.90
32502;DHT22;18952;52.516;13.460;2023-06-26T08:53:58;24.70;99.90
32502;DHT22;18952;52.516;13.460;2023-06-26T08:56:40;24.70;99.90
32502;DHT22;18952;52.516;13.460;2023-06-26T08:59:08;24.80;99.90
32502;DHT22;18952;52.516;13.460;2023-06-26T09:01:36;24.80;99.90
32502;DHT22;18952;52.516;13.460;2023-06-26T09:04:04;24.90;99.90
32502;DHT22;18952;52.516;13.460;2023-06-26T09:06:31;24.90;99.90
32502;DHT22;18952;52.516;13.460;2023-06-26T09:08:58;24.90;99.90
32502;DHT22;18952;52.516;13.460;2023-06-26T09:11:25;25.00;99.90
32502;DHT22;18952;52.516;13.460;2023-06-26T09:13:52;25.10;99.90
32502;DHT22;18952;52.516;13.460;2023-06-26T09:16:24;25.10;99.90
32502;DHT22;18952;52.516;13.460;2023-06-26T09:18:52;25.10;99.90
32502;DHT22;18952;52.516;13.460;2023-06-26T09:21:19;25.10;99.90
32502;DHT22;18952;52.516;13.460;2023-06-26T09:23:46;25.10;99.80
32502;DHT22;18952;52.516;13.460;2023-06-26T09:26:14;25.10;99.20
32502;DHT22;18952;52.516;13.460;2023-06-26T09:28:42;25.20;99.40
32502;DHT22;18952;52.516;13.460;2023-06-26T09:31:09;25.30;98.50
32502;DHT22;18952;52.516;13.460;2023-06-26T09:33:37;25.30;98.60
32502;DHT22;18952;52.516;13.460;2023-06-26T09:36:06;25.40;98.50
32502;DHT22;18952;52.516;13.460;2023-06-26T09:38:34;25.40;97.80
32502;DHT22;18952;52.516;13.460;2023-06-26T09:41:02;25.40;96.80
32502;DHT22;18952;52.516;13.460;2023-06-26T09:43:29;25.40;97.30
32502;DHT22;18952;52.516;13.460;2023-06-26T09:45:56;25.40;96.80
32502;DHT22;18952;52.516;13.460;2023-06-26T09:48:23;25.50;97.00
32502;DHT22;18952;52.516;13.460;2023-06-26T09:50:50;25.50;96.60
32502;DHT22;18952;52.516;13.460;2023-06-26T09:53:36;25.50;97.10
32502;DHT22;18952;52.516;13.460;2023-06-26T09:56:07;25.60;96.80
32502;DHT22;18952;52.516;13.460;2023-06-26T09:58:36;25.60;97.30
32502;DHT22;18952;52.516;13.460;2023-06-26T10:01:03;25.60;97.10
32502;DHT22;18952;52.516;13.460;2023-06-26T10:03:30;25.70;97.10
32502;DHT22;18952;52.516;13.460;2023-06-26T10:05:57;25.70;97.20
32502;DHT22;18952;52.516;13.460;2023-06-26T10:08:25;25.90;96.90
32502;DHT22;18952;52.516;13.460;2023-06-26T10:10:53;25.90;96.40
32502;DHT22;18952;52.516;13.460;2023-06-26T10:13:24;25.90;96.10
32502;DHT22;18952;52.516;13.460;2023-06-26T10:15:51;26.00;95.90
32502;DHT22;18952;52.516;13.460;2023-06-26T10:18:21;26.00;96.40
32502;DHT22;18952;52.516;13.460;2023-06-26T10:20:48;26.10;95.80
32502;DHT22;18952;52.516;13.460;2023-06-26T10:23:18;26.10;95.80
32502;DHT22;18952;52.516;13.460;2023-06-26T10:25:48;26.20;95.30
32502;DHT22;18952;52.516;13.460;2023-06-26T10:28:16;26.10;95.10
32502;DHT22;18952;52.516;13.460;2023-06-26T10:30:44;26.20;94.90
32502;DHT22;18952;52.516;13.460;2023-06-26T10:33:13;26.20;95.50
32502;DHT22;18952;52.516;13.460;2023-06-26T10:35:43;26.20;95.40
32502;DHT22;18952;52.516;13.460;2023-06-26T10:38:10;26.20;95.20
32502;DHT22;18952;52.516;13.460;2023-06-26T10:40:45;26.30;95.10
32502;DHT22;18952;52.516;13.460;2023-06-26T10:43:13;26.30;95.20
32502;DHT22;18952;52.516;13.460;2023-06-26T10:45:48;26.40;94.90
32502;DHT22;18952;52.516;13.460;2023-06-26T10:48:15;26.50;94.50
32502;DHT22;18952;52.516;13.460;2023-06-26T10:50:43;26.60;94.80
32502;DHT22;18952;52.516;13.460;2023-06-26T10:56:04;26.70;94.20
32502;DHT22;18952;52.516;13.460;2023-06-26T10:58:43;26.80;94.60
32502;DHT22;18952;52.516;13.460;2023-06-26T11:01:20;26.80;94.00
32502;DHT22;18952;52.516;13.460;2023-06-26T11:03:48;26.90;92.30
32502;DHT22;18952;52.516;13.460;2023-06-26T11:06:19;27.00;92.10
32502;DHT22;18952;52.516;13.460;2023-06-26T11:11:17;27.00;91.70
32502;DHT22;18952;52.516;13.460;2023-06-26T11:13:45;26.90;91.70
32502;DHT22;18952;52.516;13.460;2023-06-26T11:16:13;26.90;91.80
32502;DHT22;18952;52.516;13.460;2023-06-26T11:18:41;27.10;92.20
32502;DHT22;18952;52.516;13.460;2023-06-26T11:21:09;27.20;91.70
32502;DHT22;18952;52.516;13.460;2023-06-26T11:23:36;27.30;91.30
32502;DHT22;18952;52.516;13.460;2023-06-26T11:26:17;27.50;90.40
32502;DHT22;18952;52.516;13.460;2023-06-26T11:28:51;27.50;90.70
32502;DHT22;18952;52.516;13.460;2023-06-26T11:31:30;27.60;90.80
32502;DHT22;18952;52.516;13.460;2023-06-26T11:34:02;27.80;90.30
32502;DHT22;18952;52.516;13.460;2023-06-26T11:36:30;27.90;90.20
32502;DHT22;18952;52.516;13.460;2023-06-26T11:38:59;28.10;90.00
32502;DHT22;18952;52.516;13.460;2023-06-26T11:41:28;28.20;88.80
32502;DHT22;18952;52.516;13.460;2023-06-26T11:43:55;28.20;87.90
32502;DHT22;18952;52.516;13.460;2023-06-26T11:46:23;28.20;88.30
32502;DHT22;18952;52.516;13.460;2023-06-26T11:48:50;28.40;87.30
32502;DHT22;18952;52.516;13.460;2023-06-26T11:51:17;28.50;88.10
32502;DHT22;18952;52.516;13.460;2023-06-26T11:53:45;28.80;87.00
32502;DHT22;18952;52.516;13.460;2023-06-26T11:56:16;29.10;85.60
32502;DHT22;18952;52.516;13.460;2023-06-26T12:01:40;29.50;83.50
32502;DHT22;18952;52.516;13.460;2023-06-26T12:04:11;29.70;82.20
32502;DHT22;18952;52.516;13.460;2023-06-26T12:06:40;30.00;81.60
32502;DHT22;18952;52.516;13.460;2023-06-26T12:09:09;30.20;80.60
32502;DHT22;18952;52.516;13.460;2023-06-26T12:11:38;30.30;78.90
32502;DHT22;18952;52.516;13.460;2023-06-26T12:14:06;30.30;79.00
32502;DHT22;18952;52.516;13.460;2023-06-26T12:16:34;30.30;79.40
32502;DHT22;18952;52.516;13.460;2023-06-26T12:19:03;30.40;78.20
32502;DHT22;18952;52.516;13.460;2023-06-26T12:24:04;30.70;75.70
32502;DHT22;18952;52.516;13.460;2023-06-26T12:26:31;30.80;76.40
32502;DHT22;18952;52.516;13.460;2023-06-26T12:29:18;31.30;77.00
32502;DHT22;18952;52.516;13.460;2023-06-26T12:31:50;31.90;75.90
32502;DHT22;18952;52.516;13.460;2023-06-26T12:34:26;32.40;73.40
32502;DHT22;18952;52.516;13.460;2023-06-26T12:36:53;32.80;71.60
32502;DHT22;18952;52.516;13.460;2023-06-26T12:39:21;32.90;71.40
32502;DHT22;18952;52.516;13.460;2023-06-26T12:41:56;33.10;70.30
32502;DHT22;18952;52.516;13.460;2023-06-26T12:44:30;33.30;69.70
32502;DHT22;18952;52.516;13.460;2023-06-26T12:46:59;33.60;67.70
32502;DHT22;18952;52.516;13.460;2023-06-26T12:49:33;33.50;67.30
32502;DHT22;18952;52.516;13.460;2023-06-26T12:52:02;33.40;67.40
32502;DHT22;18952;52.516;13.460;2023-06-26T12:54:29;33.50;67.00
32502;DHT22;18952;52.516;13.460;2023-06-26T12:56:56;33.70;66.70
32502;DHT22;18952;52.516;13.460;2023-06-26T12:59:23;34.20;66.00
32502;DHT22;18952;52.516;13.460;2023-06-26T13:01:50;34.50;65.50
32502;DHT22;18952;52.516;13.460;2023-06-26T13:04:17;34.60;64.20
32502;DHT22;18952;52.516;13.460;2023-06-26T13:06:44;34.40;63.20
32502;DHT22;18952;52.516;13.460;2023-06-26T13:09:11;34.10;64.10
32502;DHT22;18952;52.516;13.460;2023-06-26T13:11:38;33.80;64.20
32502;DHT22;18952;52.516;13.460;2023-06-26T13:14:05;33.80;64.90
32502;DHT22;18952;52.516;13.460;2023-06-26T13:16:37;33.60;64.30
32502;DHT22;18952;52.516;13.460;2023-06-26T13:19:05;33.30;64.30
32502;DHT22;18952;52.516;13.460;2023-06-26T13:21:32;32.90;64.10
32502;DHT22;18952;52.516;13.460;2023-06-26T13:23:59;32.50;64.30
32502;DHT22;18952;52.516;13.460;2023-06-26T13:26:27;32.10;65.30
32502;DHT22;18952;52.516;13.460;2023-06-26T13:29:04;31.90;66.30
32502;DHT22;18952;52.516;13.460;2023-06-26T13:31:31;31.50;66.30
32502;DHT22;18952;52.516;13.460;2023-06-26T13:33:59;31.20;66.80
32502;DHT22;18952;52.516;13.460;2023-06-26T13:36:27;31.00;67.30
32502;DHT22;18952;52.516;13.460;2023-06-26T13:38:54;30.80;67.10
32502;DHT22;18952;52.516;13.460;2023-06-26T13:41:24;30.60;67.60
32502;DHT22;18952;52.516;13.460;2023-06-26T13:43:52;30.40;67.50
32502;DHT22;18952;52.516;13.460;2023-06-26T13:46:24;30.20;67.80
32502;DHT22;18952;52.516;13.460;2023-06-26T13:48:50;30.20;68.30
32502;DHT22;18952;52.516;13.460;2023-06-26T13:51:17;30.00;68.90
32502;DHT22;18952;52.516;13.460;2023-06-26T13:53:44;30.00;69.60
32502;DHT22;18952;52.516;13.460;2023-06-26T13:56:11;30.10;69.50
32502;DHT22;18952;52.516;13.460;2023-06-26T13:58:37;30.00;69.40
32502;DHT22;18952;52.516;13.460;2023-06-26T14:01:04;30.00;69.40
32502;DHT22;18952;52.516;13.460;2023-06-26T14:03:31;30.00;69.50
32502;DHT22;18952;52.516;13.460;2023-06-26T14:05:59;30.00;69.60
32502;DHT22;18952;52.516;13.460;2023-06-26T14:08:26;30.00;69.90
32502;DHT22;18952;52.516;13.460;2023-06-26T14:10:53;30.00;69.80
32502;DHT22;18952;52.516;13.460;2023-06-26T14:13:19;29.80;69.70
32502;DHT22;18952;52.516;13.460;2023-06-26T14:15:49;29.70;69.90
32502;DHT22;18952;52.516;13.460;2023-06-26T14:18:16;29.70;70.30
32502;DHT22;18952;52.516;13.460;2023-06-26T14:20:43;29.50;70.30
32502;DHT22;18952;52.516;13.460;2023-06-26T14:23:10;29.40;70.30
32502;DHT22;18952;52.516;13.460;2023-06-26T14:25:37;29.30;70.20
32502;DHT22;18952;52.516;13.460;2023-06-26T14:28:03;29.00;72.90
32502;DHT22;18952;52.516;13.460;2023-06-26T14:30:30;28.30;77.90
32502;DHT22;18952;52.516;13.460;2023-06-26T14:32:57;26.10;95.00
32502;DHT22;18952;52.516;13.460;2023-06-26T14:35:24;22.70;99.90
32502;DHT22;18952;52.516;13.460;2023-06-26T14:37:51;20.10;99.90
32502;DHT22;18952;52.516;13.460;2023-06-26T14:40:17;18.90;99.90
32502;DHT22;18952;52.516;13.460;2023-06-26T14:42:45;18.40;99.90
32502;DHT22;18952;52.516;13.460;2023-06-26T14:45:12;18.10;99.90
32502;DHT22;18952;52.516;13.460;2023-06-26T14:47:39;17.90;99.90
32502;DHT22;18952;52.516;13.460;2023-06-26T14:50:07;17.80;99.90
32502;DHT22;18952;52.516;13.460;2023-06-26T14:52:34;17.70;99.90
32502;DHT22;18952;52.516;13.460;2023-06-26T14:55:01;17.70;99.90
32502;DHT22;18952;52.516;13.460;2023-06-26T14:57:30;17.60;99.90
32502;DHT22;18952;52.516;13.460;2023-06-26T14:59:57;17.70;99.90
32502;DHT22;18952;52.516;13.460;2023-06-26T15:02:23;17.70;99.90
32502;DHT22;18952;52.516;13.460;2023-06-26T15:04:50;17.80;99.90
32502;DHT22;18952;52.516;13.460;2023-06-26T15:07:17;17.80;99.90
32502;DHT22;18952;52.516;13.460;2023-06-26T15:09:44;17.90;99.90
32502;DHT22;18952;52.516;13.460;2023-06-26T15:12:11;18.10;99.90
32502;DHT22;18952;52.516;13.460;2023-06-26T15:14:38;18.10;99.90
32502;DHT22;18952;52.516;13.460;2023-06-26T15:17:05;18.30;99.90
32502;DHT22;18952;52.516;13.460;2023-06-26T15:19:31;18.40;99.90
32502;DHT22;18952;52.516;13.460;2023-06-26T15:21:58;18.40;99.90
32502;DHT22;18952;52.516;13.460;2023-06-26T15:24:25;18.40;99.90
32502;DHT22;18952;52.516;13.460;2023-06-26T15:26:52;18.40;99.90
32502;DHT22;18952;52.516;13.460;2023-06-26T15:29:18;18.40;99.90
32502;DHT22;18952;52.516;13.460;2023-06-26T15:31:45;18.30;99.90
32502;DHT22;18952;52.516;13.460;2023-06-26T15:34:12;18.20;99.90
32502;DHT22;18952;52.516;13.460;2023-06-26T15:36:40;18.10;99.90